Center — 9HA2615 — position and weather

sailwx.info

Track history (hours):
 
Tides and Currents Weather Stations Pressure Air Temp Water Temp Dewpoint Dewpoint Depression Visibility Wind Speed Wind Dir Waves Ship Positions

Center

Last reported at 2015-Feb-22 15:28 UTC. Time now 2015-Apr-18 20:46 UTC.
Position N 36°00' W 005°28'.
Warning: this ship's position is 55 days out of date.

Length 274 m; draft 16.6 m.

Type: Tanker. MMSI: 215030000.

Date/timePositionNaut miles runAvg speedWind from/ knotsBaromVisibWave heightAir tempDewpointWater temp
2015-Feb-22 15:28N 36°00' W 005°28'8 9.1
2015-Feb-22 14:33N 36°07' W 005°23'0 0.0
2015-Feb-22 11:04N 36°07' W 005°22'0 0.0
2015-Feb-22 08:22N 36°07' W 005°22'2 0.3
2015-Feb-22 03:33N 36°06' W 005°22'3 3.5
2015-Feb-22 02:33N 36°03' W 005°19'1 0.8
2015-Feb-22 01:33N 36°04' W 005°20'1 0.9
2015-Feb-22 00:33N 36°04' W 005°20'4 4.4
2015-Feb-21 23:33N 36°06' W 005°15'5 0.5
2015-Feb-21 14:25N 36°05' W 005°09'2 2.0
2015-Feb-21 13:33N 36°06' W 005°11'3 3.4
2015-Feb-21 12:33N 36°06' W 005°15'  
Track history (hours):
 
Tides and Currents Weather Stations Pressure Air Temp Water Temp Dewpoint Dewpoint Depression Visibility Wind Speed Wind Dir Waves Ship Positions

Center

Last reported at 2015-Feb-22 15:28 UTC. Time now 2015-Apr-18 20:46 UTC.
Position N 36°00' W 005°28'.
Warning: this ship's position is 55 days out of date.

Length 274 m; draft 16.6 m.

Type: Tanker. MMSI: 215030000.

Date/timePositionNaut miles runAvg speedWind from/ knotsBaromVisibWave heightAir tempDewpointWater temp
2015-Feb-22 15:28N 36°00' W 005°28'8 9.1
2015-Feb-22 14:33N 36°07' W 005°23'0 0.0
2015-Feb-22 11:04N 36°07' W 005°22'0 0.0
2015-Feb-22 08:22N 36°07' W 005°22'2 0.3
2015-Feb-22 03:33N 36°06' W 005°22'3 3.5
2015-Feb-22 02:33N 36°03' W 005°19'1 0.8
2015-Feb-22 01:33N 36°04' W 005°20'1 0.9
2015-Feb-22 00:33N 36°04' W 005°20'4 4.4
2015-Feb-21 23:33N 36°06' W 005°15'5 0.5
2015-Feb-21 14:25N 36°05' W 005°09'2 2.0
2015-Feb-21 13:33N 36°06' W 005°11'3 3.4
2015-Feb-21 12:33N 36°06' W 005°15'  

Dump ship's entire track history